CPX321 Details

Departure: Kansas City International Airport (KMCI)
Arrival: Chicago/Rockford International Airport (KRFD)
Route: ROYAL9 BODYN MZV RFD


Current Weather Information
KMCI 232202Z 07008KT 10SM OVC028 23/16 A3004 RMK AO2 T02330161
KRFD 232154Z 26012G19KT 10SM FEW250 23/12 A3006 RMK AO2 SLP179 T02280117